sensor_id;sensor_type;location;lat;lon;timestamp;P1;durP1;ratioP1;P2;durP2;ratioP2
15616;SDS011;7908;51.688;7.130;2022-11-04T00:05:34;4.83;;;4.40;;
15616;SDS011;7908;51.688;7.130;2022-11-04T00:08:03;5.33;;;4.30;;
15616;SDS011;7908;51.688;7.130;2022-11-04T00:10:52;5.57;;;4.70;;
15616;SDS011;7908;51.688;7.130;2022-11-04T00:13:38;4.67;;;4.27;;
15616;SDS011;7908;51.688;7.130;2022-11-04T00:16:07;4.60;;;4.20;;
15616;SDS011;7908;51.688;7.130;2022-11-04T00:18:54;5.63;;;4.40;;
15616;SDS011;7908;51.688;7.130;2022-11-04T00:21:24;5.30;;;4.27;;
15616;SDS011;7908;51.688;7.130;2022-11-04T00:24:11;4.67;;;4.27;;
15616;SDS011;7908;51.688;7.130;2022-11-04T00:26:58;4.60;;;4.00;;
15616;SDS011;7908;51.688;7.130;2022-11-04T00:29:44;5.00;;;4.30;;
15616;SDS011;7908;51.688;7.130;2022-11-04T00:32:13;4.30;;;3.90;;
15616;SDS011;7908;51.688;7.130;2022-11-04T00:34:58;7.07;;;3.83;;
15616;SDS011;7908;51.688;7.130;2022-11-04T00:37:29;6.87;;;5.90;;
15616;SDS011;7908;51.688;7.130;2022-11-04T00:39:58;4.97;;;3.60;;
15616;SDS011;7908;51.688;7.130;2022-11-04T00:42:26;6.93;;;4.10;;
15616;SDS011;7908;51.688;7.130;2022-11-04T00:44:55;5.47;;;4.00;;
15616;SDS011;7908;51.688;7.130;2022-11-04T00:47:23;5.20;;;4.63;;
15616;SDS011;7908;51.688;7.130;2022-11-04T00:49:52;5.83;;;5.33;;
15616;SDS011;7908;51.688;7.130;2022-11-04T00:52:21;6.97;;;6.27;;
15616;SDS011;7908;51.688;7.130;2022-11-04T00:54:51;8.70;;;7.27;;
15616;SDS011;7908;51.688;7.130;2022-11-04T00:57:20;7.53;;;6.37;;
15616;SDS011;7908;51.688;7.130;2022-11-04T00:59:48;6.87;;;6.00;;
15616;SDS011;7908;51.688;7.130;2022-11-04T01:02:17;6.07;;;5.47;;
15616;SDS011;7908;51.688;7.130;2022-11-04T01:04:46;6.70;;;5.50;;
15616;SDS011;7908;51.688;7.130;2022-11-04T01:07:15;6.57;;;5.50;;
15616;SDS011;7908;51.688;7.130;2022-11-04T01:09:43;5.23;;;4.73;;
15616;SDS011;7908;51.688;7.130;2022-11-04T01:12:14;5.80;;;5.13;;
15616;SDS011;7908;51.688;7.130;2022-11-04T01:14:43;5.60;;;4.37;;
15616;SDS011;7908;51.688;7.130;2022-11-04T01:17:15;4.90;;;4.40;;
15616;SDS011;7908;51.688;7.130;2022-11-04T01:19:43;5.63;;;4.70;;
15616;SDS011;7908;51.688;7.130;2022-11-04T01:22:12;5.97;;;4.40;;
15616;SDS011;7908;51.688;7.130;2022-11-04T01:24:41;4.87;;;4.43;;
15616;SDS011;7908;51.688;7.130;2022-11-04T01:27:09;5.07;;;4.10;;
15616;SDS011;7908;51.688;7.130;2022-11-04T01:29:39;4.10;;;3.80;;
15616;SDS011;7908;51.688;7.130;2022-11-04T01:32:08;5.00;;;4.10;;
15616;SDS011;7908;51.688;7.130;2022-11-04T01:34:36;5.37;;;4.17;;
15616;SDS011;7908;51.688;7.130;2022-11-04T01:37:09;6.03;;;4.60;;
15616;SDS011;7908;51.688;7.130;2022-11-04T01:39:37;5.33;;;4.77;;
15616;SDS011;7908;51.688;7.130;2022-11-04T01:42:08;5.57;;;5.07;;
15616;SDS011;7908;51.688;7.130;2022-11-04T01:44:46;5.57;;;4.90;;
15616;SDS011;7908;51.688;7.130;2022-11-04T01:47:29;5.90;;;5.30;;
15616;SDS011;7908;51.688;7.130;2022-11-04T01:50:04;7.63;;;6.93;;
15616;SDS011;7908;51.688;7.130;2022-11-04T01:52:36;7.67;;;6.97;;
15616;SDS011;7908;51.688;7.130;2022-11-04T01:55:09;8.23;;;7.00;;
15616;SDS011;7908;51.688;7.130;2022-11-04T01:57:41;10.20;;;9.03;;
15616;SDS011;7908;51.688;7.130;2022-11-04T02:00:14;9.77;;;8.87;;
15616;SDS011;7908;51.688;7.130;2022-11-04T02:02:50;10.73;;;9.43;;
15616;SDS011;7908;51.688;7.130;2022-11-04T02:05:21;10.30;;;9.30;;
15616;SDS011;7908;51.688;7.130;2022-11-04T02:07:52;11.90;;;10.70;;
15616;SDS011;7908;51.688;7.130;2022-11-04T02:10:24;11.23;;;10.07;;
15616;SDS011;7908;51.688;7.130;2022-11-04T02:12:55;12.90;;;11.10;;
15616;SDS011;7908;51.688;7.130;2022-11-04T02:15:28;11.53;;;10.33;;
15616;SDS011;7908;51.688;7.130;2022-11-04T02:18:11;12.07;;;10.90;;
15616;SDS011;7908;51.688;7.130;2022-11-04T02:24:27;13.77;;;12.47;;
15616;SDS011;7908;51.688;7.130;2022-11-04T02:27:17;14.10;;;12.87;;
15616;SDS011;7908;51.688;7.130;2022-11-04T02:32:52;14.00;;;12.53;;
15616;SDS011;7908;51.688;7.130;2022-11-04T02:35:35;14.03;;;12.63;;
15616;SDS011;7908;51.688;7.130;2022-11-04T02:38:11;15.63;;;12.33;;
15616;SDS011;7908;51.688;7.130;2022-11-04T02:40:48;15.10;;;13.03;;
15616;SDS011;7908;51.688;7.130;2022-11-04T02:43:25;13.40;;;12.10;;
15616;SDS011;7908;51.688;7.130;2022-11-04T02:46:02;14.37;;;12.87;;
15616;SDS011;7908;51.688;7.130;2022-11-04T02:48:34;13.23;;;11.93;;
15616;SDS011;7908;51.688;7.130;2022-11-04T02:51:08;12.83;;;11.43;;
15616;SDS011;7908;51.688;7.130;2022-11-04T02:53:43;15.40;;;11.13;;
15616;SDS011;7908;51.688;7.130;2022-11-04T02:56:16;15.70;;;11.37;;
15616;SDS011;7908;51.688;7.130;2022-11-04T02:58:49;11.70;;;10.27;;
15616;SDS011;7908;51.688;7.130;2022-11-04T03:01:23;12.70;;;10.80;;
15616;SDS011;7908;51.688;7.130;2022-11-04T03:03:57;12.53;;;10.83;;
15616;SDS011;7908;51.688;7.130;2022-11-04T03:06:32;12.23;;;10.17;;
15616;SDS011;7908;51.688;7.130;2022-11-04T03:09:03;15.60;;;10.70;;
15616;SDS011;7908;51.688;7.130;2022-11-04T03:11:32;11.47;;;10.33;;
15616;SDS011;7908;51.688;7.130;2022-11-04T03:14:03;13.60;;;10.63;;
15616;SDS011;7908;51.688;7.130;2022-11-04T03:16:37;12.30;;;10.10;;
15616;SDS011;7908;51.688;7.130;2022-11-04T03:19:10;14.67;;;11.13;;
15616;SDS011;7908;51.688;7.130;2022-11-04T03:21:44;14.23;;;10.67;;
15616;SDS011;7908;51.688;7.130;2022-11-04T03:24:18;12.47;;;10.50;;
15616;SDS011;7908;51.688;7.130;2022-11-04T03:26:48;13.20;;;10.63;;
15616;SDS011;7908;51.688;7.130;2022-11-04T03:29:24;12.77;;;10.17;;
15616;SDS011;7908;51.688;7.130;2022-11-04T03:32:03;9.83;;;8.80;;
15616;SDS011;7908;51.688;7.130;2022-11-04T03:34:38;10.70;;;9.23;;
15616;SDS011;7908;51.688;7.130;2022-11-04T03:37:07;10.07;;;8.00;;
15616;SDS011;7908;51.688;7.130;2022-11-04T03:39:37;10.73;;;7.90;;
15616;SDS011;7908;51.688;7.130;2022-11-04T03:42:07;9.73;;;7.03;;
15616;SDS011;7908;51.688;7.130;2022-11-04T03:44:47;10.23;;;7.07;;
15616;SDS011;7908;51.688;7.130;2022-11-04T03:47:20;10.63;;;7.20;;
15616;SDS011;7908;51.688;7.130;2022-11-04T03:49:54;13.27;;;6.83;;
15616;SDS011;7908;51.688;7.130;2022-11-04T03:52:29;11.67;;;5.93;;
15616;SDS011;7908;51.688;7.130;2022-11-04T03:54:58;12.93;;;6.50;;
15616;SDS011;7908;51.688;7.130;2022-11-04T03:57:33;9.83;;;5.57;;
15616;SDS011;7908;51.688;7.130;2022-11-04T04:00:09;8.47;;;5.80;;
15616;SDS011;7908;51.688;7.130;2022-11-04T04:02:58;9.43;;;5.30;;
15616;SDS011;7908;51.688;7.130;2022-11-04T04:05:34;8.00;;;5.10;;
15616;SDS011;7908;51.688;7.130;2022-11-04T04:08:11;8.43;;;5.03;;
15616;SDS011;7908;51.688;7.130;2022-11-04T04:10:47;10.13;;;4.80;;
15616;SDS011;7908;51.688;7.130;2022-11-04T04:13:29;9.43;;;4.27;;
15616;SDS011;7908;51.688;7.130;2022-11-04T04:16:06;12.17;;;4.87;;
15616;SDS011;7908;51.688;7.130;2022-11-04T04:18:39;9.43;;;4.50;;
15616;SDS011;7908;51.688;7.130;2022-11-04T04:21:12;8.67;;;4.30;;
15616;SDS011;7908;51.688;7.130;2022-11-04T04:23:45;8.43;;;4.03;;
15616;SDS011;7908;51.688;7.130;2022-11-04T04:26:35;7.30;;;3.73;;
15616;SDS011;7908;51.688;7.130;2022-11-04T04:29:23;8.97;;;3.77;;
15616;SDS011;7908;51.688;7.130;2022-11-04T04:31:54;8.83;;;3.60;;
15616;SDS011;7908;51.688;7.130;2022-11-04T04:34:26;7.83;;;3.70;;
15616;SDS011;7908;51.688;7.130;2022-11-04T04:36:59;12.03;;;4.07;;
15616;SDS011;7908;51.688;7.130;2022-11-04T04:39:35;11.10;;;4.00;;
15616;SDS011;7908;51.688;7.130;2022-11-04T04:42:29;8.37;;;3.47;;
15616;SDS011;7908;51.688;7.130;2022-11-04T04:45:18;12.13;;;4.43;;
15616;SDS011;7908;51.688;7.130;2022-11-04T04:47:48;9.03;;;3.57;;
15616;SDS011;7908;51.688;7.130;2022-11-04T04:50:19;12.10;;;4.23;;
15616;SDS011;7908;51.688;7.130;2022-11-04T04:52:50;9.47;;;3.73;;
15616;SDS011;7908;51.688;7.130;2022-11-04T04:55:20;13.30;;;4.13;;
15616;SDS011;7908;51.688;7.130;2022-11-04T04:57:48;11.23;;;3.80;;
15616;SDS011;7908;51.688;7.130;2022-11-04T05:00:18;6.30;;;3.10;;
15616;SDS011;7908;51.688;7.130;2022-11-04T05:02:47;9.70;;;3.80;;
15616;SDS011;7908;51.688;7.130;2022-11-04T05:05:17;9.30;;;3.43;;
15616;SDS011;7908;51.688;7.130;2022-11-04T05:07:47;12.40;;;3.43;;
15616;SDS011;7908;51.688;7.130;2022-11-04T05:10:17;9.33;;;3.60;;
15616;SDS011;7908;51.688;7.130;2022-11-04T05:12:45;11.90;;;3.67;;
15616;SDS011;7908;51.688;7.130;2022-11-04T05:15:31;10.33;;;3.67;;
15616;SDS011;7908;51.688;7.130;2022-11-04T05:18:01;8.20;;;4.23;;
15616;SDS011;7908;51.688;7.130;2022-11-04T05:20:31;9.13;;;4.07;;
15616;SDS011;7908;51.688;7.130;2022-11-04T05:23:00;10.90;;;3.73;;
15616;SDS011;7908;51.688;7.130;2022-11-04T05:25:29;13.60;;;3.80;;
15616;SDS011;7908;51.688;7.130;2022-11-04T05:27:58;12.47;;;3.97;;
15616;SDS011;7908;51.688;7.130;2022-11-04T05:30:28;8.10;;;4.07;;
15616;SDS011;7908;51.688;7.130;2022-11-04T05:32:56;9.13;;;3.83;;
15616;SDS011;7908;51.688;7.130;2022-11-04T05:35:32;11.00;;;4.13;;
15616;SDS011;7908;51.688;7.130;2022-11-04T05:38:01;8.67;;;4.10;;
15616;SDS011;7908;51.688;7.130;2022-11-04T05:40:29;10.57;;;4.43;;
15616;SDS011;7908;51.688;7.130;2022-11-04T05:42:58;12.50;;;4.73;;
15616;SDS011;7908;51.688;7.130;2022-11-04T05:45:27;16.20;;;5.03;;
15616;SDS011;7908;51.688;7.130;2022-11-04T05:47:57;11.37;;;4.60;;
15616;SDS011;7908;51.688;7.130;2022-11-04T05:50:26;12.33;;;4.77;;
15616;SDS011;7908;51.688;7.130;2022-11-04T05:52:57;11.10;;;5.07;;
15616;SDS011;7908;51.688;7.130;2022-11-04T05:55:26;11.63;;;5.87;;
15616;SDS011;7908;51.688;7.130;2022-11-04T05:57:55;11.70;;;4.63;;
15616;SDS011;7908;51.688;7.130;2022-11-04T06:00:25;16.00;;;5.90;;
15616;SDS011;7908;51.688;7.130;2022-11-04T06:02:54;13.67;;;6.10;;
15616;SDS011;7908;51.688;7.130;2022-11-04T06:05:24;10.73;;;4.77;;
15616;SDS011;7908;51.688;7.130;2022-11-04T06:07:54;13.03;;;6.03;;
15616;SDS011;7908;51.688;7.130;2022-11-04T06:10:24;12.97;;;6.87;;
15616;SDS011;7908;51.688;7.130;2022-11-04T06:12:53;13.07;;;5.67;;
15616;SDS011;7908;51.688;7.130;2022-11-04T06:15:22;8.97;;;4.57;;
15616;SDS011;7908;51.688;7.130;2022-11-04T06:17:51;8.43;;;3.93;;
15616;SDS011;7908;51.688;7.130;2022-11-04T06:20:19;10.90;;;3.70;;
15616;SDS011;7908;51.688;7.130;2022-11-04T06:22:48;8.83;;;3.37;;
15616;SDS011;7908;51.688;7.130;2022-11-04T06:25:16;8.63;;;3.70;;
15616;SDS011;7908;51.688;7.130;2022-11-04T06:27:47;12.73;;;3.70;;
15616;SDS011;7908;51.688;7.130;2022-11-04T06:30:15;12.73;;;3.30;;
15616;SDS011;7908;51.688;7.130;2022-11-04T06:32:44;10.57;;;3.83;;
15616;SDS011;7908;51.688;7.130;2022-11-04T06:35:13;7.17;;;3.20;;
15616;SDS011;7908;51.688;7.130;2022-11-04T06:37:41;10.57;;;3.40;;
15616;SDS011;7908;51.688;7.130;2022-11-04T06:40:10;6.67;;;3.27;;
15616;SDS011;7908;51.688;7.130;2022-11-04T06:42:39;9.33;;;3.20;;
15616;SDS011;7908;51.688;7.130;2022-11-04T06:45:10;10.10;;;4.07;;
15616;SDS011;7908;51.688;7.130;2022-11-04T06:47:38;10.80;;;3.70;;
15616;SDS011;7908;51.688;7.130;2022-11-04T06:50:07;10.70;;;3.87;;
15616;SDS011;7908;51.688;7.130;2022-11-04T06:52:36;8.30;;;3.33;;
15616;SDS011;7908;51.688;7.130;2022-11-04T06:55:08;10.90;;;3.60;;
15616;SDS011;7908;51.688;7.130;2022-11-04T06:57:37;10.60;;;3.90;;
15616;SDS011;7908;51.688;7.130;2022-11-04T07:00:06;10.17;;;4.10;;
15616;SDS011;7908;51.688;7.130;2022-11-04T07:02:37;11.37;;;3.97;;
15616;SDS011;7908;51.688;7.130;2022-11-04T07:05:06;12.53;;;4.30;;
15616;SDS011;7908;51.688;7.130;2022-11-04T07:07:36;11.93;;;4.50;;
15616;SDS011;7908;51.688;7.130;2022-11-04T07:10:05;9.97;;;3.43;;
15616;SDS011;7908;51.688;7.130;2022-11-04T07:12:33;9.63;;;3.40;;
15616;SDS011;7908;51.688;7.130;2022-11-04T07:15:02;10.33;;;3.37;;
15616;SDS011;7908;51.688;7.130;2022-11-04T07:17:31;10.53;;;3.20;;
15616;SDS011;7908;51.688;7.130;2022-11-04T07:20:01;7.43;;;3.13;;
15616;SDS011;7908;51.688;7.130;2022-11-04T07:22:31;11.37;;;3.73;;
15616;SDS011;7908;51.688;7.130;2022-11-04T07:24:59;10.00;;;3.77;;
15616;SDS011;7908;51.688;7.130;2022-11-04T07:27:28;9.77;;;3.40;;
15616;SDS011;7908;51.688;7.130;2022-11-04T07:29:56;9.83;;;3.50;;
15616;SDS011;7908;51.688;7.130;2022-11-04T07:32:25;6.67;;;3.70;;
15616;SDS011;7908;51.688;7.130;2022-11-04T07:34:54;9.67;;;3.47;;
15616;SDS011;7908;51.688;7.130;2022-11-04T07:37:23;11.40;;;3.93;;
15616;SDS011;7908;51.688;7.130;2022-11-04T07:39:52;11.47;;;3.40;;
15616;SDS011;7908;51.688;7.130;2022-11-04T07:42:21;10.90;;;3.13;;
15616;SDS011;7908;51.688;7.130;2022-11-04T07:44:49;10.23;;;3.60;;
15616;SDS011;7908;51.688;7.130;2022-11-04T07:47:18;11.17;;;4.13;;
15616;SDS011;7908;51.688;7.130;2022-11-04T07:49:46;11.20;;;3.40;;
15616;SDS011;7908;51.688;7.130;2022-11-04T07:52:15;9.13;;;3.40;;
15616;SDS011;7908;51.688;7.130;2022-11-04T07:54:46;9.97;;;3.90;;
15616;SDS011;7908;51.688;7.130;2022-11-04T07:57:14;9.57;;;3.50;;
15616;SDS011;7908;51.688;7.130;2022-11-04T07:59:43;9.80;;;4.00;;
15616;SDS011;7908;51.688;7.130;2022-11-04T08:02:11;10.23;;;4.10;;
15616;SDS011;7908;51.688;7.130;2022-11-04T08:04:44;8.37;;;3.80;;
15616;SDS011;7908;51.688;7.130;2022-11-04T08:07:13;7.20;;;3.90;;
15616;SDS011;7908;51.688;7.130;2022-11-04T08:09:43;7.33;;;3.67;;
15616;SDS011;7908;51.688;7.130;2022-11-04T08:12:13;11.80;;;3.77;;
15616;SDS011;7908;51.688;7.130;2022-11-04T08:14:41;8.03;;;3.50;;
15616;SDS011;7908;51.688;7.130;2022-11-04T08:17:10;9.37;;;3.53;;
15616;SDS011;7908;51.688;7.130;2022-11-04T08:19:39;11.13;;;3.83;;
15616;SDS011;7908;51.688;7.130;2022-11-04T08:22:07;11.87;;;3.67;;
15616;SDS011;7908;51.688;7.130;2022-11-04T08:24:36;9.27;;;3.67;;
15616;SDS011;7908;51.688;7.130;2022-11-04T08:27:06;8.40;;;3.40;;
15616;SDS011;7908;51.688;7.130;2022-11-04T08:29:37;9.67;;;3.60;;
15616;SDS011;7908;51.688;7.130;2022-11-04T08:32:05;9.13;;;3.27;;
15616;SDS011;7908;51.688;7.130;2022-11-04T08:34:35;8.90;;;3.10;;
15616;SDS011;7908;51.688;7.130;2022-11-04T08:37:03;9.67;;;3.13;;
15616;SDS011;7908;51.688;7.130;2022-11-04T08:39:32;10.60;;;3.33;;
15616;SDS011;7908;51.688;7.130;2022-11-04T08:42:01;10.67;;;3.37;;
15616;SDS011;7908;51.688;7.130;2022-11-04T08:44:30;8.93;;;3.50;;
15616;SDS011;7908;51.688;7.130;2022-11-04T08:47:01;10.27;;;3.50;;
15616;SDS011;7908;51.688;7.130;2022-11-04T08:49:30;11.73;;;3.90;;
15616;SDS011;7908;51.688;7.130;2022-11-04T08:51:58;11.60;;;4.10;;
15616;SDS011;7908;51.688;7.130;2022-11-04T08:54:27;9.03;;;3.77;;
15616;SDS011;7908;51.688;7.130;2022-11-04T08:56:56;8.53;;;3.77;;
15616;SDS011;7908;51.688;7.130;2022-11-04T08:59:25;10.70;;;3.80;;
15616;SDS011;7908;51.688;7.130;2022-11-04T09:01:54;11.17;;;5.00;;
15616;SDS011;7908;51.688;7.130;2022-11-04T09:04:24;10.23;;;4.13;;
15616;SDS011;7908;51.688;7.130;2022-11-04T09:06:53;16.90;;;13.80;;
15616;SDS011;7908;51.688;7.130;2022-11-04T09:09:22;16.80;;;10.30;;
15616;SDS011;7908;51.688;7.130;2022-11-04T09:11:51;14.40;;;8.03;;
15616;SDS011;7908;51.688;7.130;2022-11-04T09:14:20;10.50;;;5.07;;
15616;SDS011;7908;51.688;7.130;2022-11-04T09:16:49;38.27;;;17.47;;
15616;SDS011;7908;51.688;7.130;2022-11-04T09:19:19;47.43;;;22.60;;
15616;SDS011;7908;51.688;7.130;2022-11-04T09:21:49;38.40;;;16.77;;
15616;SDS011;7908;51.688;7.130;2022-11-04T09:24:18;15.13;;;6.63;;
15616;SDS011;7908;51.688;7.130;2022-11-04T09:26:47;10.90;;;4.83;;
15616;SDS011;7908;51.688;7.130;2022-11-04T09:29:15;14.67;;;6.33;;
15616;SDS011;7908;51.688;7.130;2022-11-04T09:31:45;9.07;;;3.93;;
15616;SDS011;7908;51.688;7.130;2022-11-04T09:34:15;9.80;;;3.87;;
15616;SDS011;7908;51.688;7.130;2022-11-04T09:36:44;8.27;;;3.77;;
15616;SDS011;7908;51.688;7.130;2022-11-04T09:39:15;18.80;;;7.33;;
15616;SDS011;7908;51.688;7.130;2022-11-04T09:41:48;14.33;;;6.53;;
15616;SDS011;7908;51.688;7.130;2022-11-04T09:44:24;19.40;;;8.23;;
15616;SDS011;7908;51.688;7.130;2022-11-04T09:46:57;10.20;;;4.00;;
15616;SDS011;7908;51.688;7.130;2022-11-04T09:49:28;8.57;;;3.50;;
15616;SDS011;7908;51.688;7.130;2022-11-04T09:52:03;11.87;;;4.37;;
15616;SDS011;7908;51.688;7.130;2022-11-04T09:54:42;11.63;;;5.97;;
15616;SDS011;7908;51.688;7.130;2022-11-04T09:57:17;11.20;;;5.90;;
15616;SDS011;7908;51.688;7.130;2022-11-04T09:59:46;13.20;;;6.37;;
15616;SDS011;7908;51.688;7.130;2022-11-04T10:05:13;10.00;;;3.37;;
15616;SDS011;7908;51.688;7.130;2022-11-04T10:07:55;8.13;;;2.90;;
15616;SDS011;7908;51.688;7.130;2022-11-04T10:10:37;10.40;;;3.40;;
15616;SDS011;7908;51.688;7.130;2022-11-04T10:13:16;7.57;;;3.33;;
15616;SDS011;7908;51.688;7.130;2022-11-04T10:15:57;7.90;;;3.60;;
15616;SDS011;7908;51.688;7.130;2022-11-04T10:18:36;9.90;;;4.70;;
15616;SDS011;7908;51.688;7.130;2022-11-04T10:21:26;9.10;;;2.77;;
15616;SDS011;7908;51.688;7.130;2022-11-04T10:24:06;7.37;;;2.80;;
15616;SDS011;7908;51.688;7.130;2022-11-04T10:26:45;7.87;;;2.73;;
15616;SDS011;7908;51.688;7.130;2022-11-04T10:29:26;9.03;;;3.13;;
15616;SDS011;7908;51.688;7.130;2022-11-04T10:32:00;8.67;;;2.63;;
15616;SDS011;7908;51.688;7.130;2022-11-04T10:34:33;10.27;;;2.40;;
15616;SDS011;7908;51.688;7.130;2022-11-04T10:37:07;8.27;;;2.77;;
15616;SDS011;7908;51.688;7.130;2022-11-04T10:39:42;9.37;;;2.40;;
15616;SDS011;7908;51.688;7.130;2022-11-04T10:42:15;9.37;;;3.03;;
15616;SDS011;7908;51.688;7.130;2022-11-04T10:44:48;8.13;;;2.57;;
15616;SDS011;7908;51.688;7.130;2022-11-04T10:47:25;9.90;;;2.70;;
15616;SDS011;7908;51.688;7.130;2022-11-04T10:50:06;9.13;;;2.80;;
15616;SDS011;7908;51.688;7.130;2022-11-04T10:53:01;8.00;;;3.37;;
15616;SDS011;7908;51.688;7.130;2022-11-04T10:55:40;8.80;;;3.23;;
15616;SDS011;7908;51.688;7.130;2022-11-04T10:58:18;10.13;;;2.77;;
15616;SDS011;7908;51.688;7.130;2022-11-04T11:00:50;8.70;;;3.27;;
15616;SDS011;7908;51.688;7.130;2022-11-04T11:03:24;10.63;;;4.70;;
15616;SDS011;7908;51.688;7.130;2022-11-04T11:06:08;8.93;;;3.23;;
15616;SDS011;7908;51.688;7.130;2022-11-04T11:08:39;9.90;;;3.37;;
15616;SDS011;7908;51.688;7.130;2022-11-04T11:11:09;8.10;;;3.30;;
15616;SDS011;7908;51.688;7.130;2022-11-04T11:13:43;6.80;;;2.70;;
15616;SDS011;7908;51.688;7.130;2022-11-04T11:16:16;7.50;;;2.50;;
15616;SDS011;7908;51.688;7.130;2022-11-04T11:18:50;9.87;;;2.80;;
15616;SDS011;7908;51.688;7.130;2022-11-04T11:21:43;6.40;;;2.03;;
15616;SDS011;7908;51.688;7.130;2022-11-04T11:24:16;25.30;;;12.83;;
15616;SDS011;7908;51.688;7.130;2022-11-04T11:26:48;19.87;;;10.57;;
15616;SDS011;7908;51.688;7.130;2022-11-04T11:29:21;19.37;;;9.53;;
15616;SDS011;7908;51.688;7.130;2022-11-04T11:31:51;12.40;;;6.10;;
15616;SDS011;7908;51.688;7.130;2022-11-04T11:34:23;9.30;;;3.63;;
15616;SDS011;7908;51.688;7.130;2022-11-04T11:36:54;6.33;;;3.00;;
15616;SDS011;7908;51.688;7.130;2022-11-04T11:39:24;11.73;;;3.77;;
15616;SDS011;7908;51.688;7.130;2022-11-04T11:41:56;9.07;;;3.47;;
15616;SDS011;7908;51.688;7.130;2022-11-04T11:44:29;9.57;;;3.23;;
15616;SDS011;7908;51.688;7.130;2022-11-04T11:47:03;7.90;;;3.13;;
15616;SDS011;7908;51.688;7.130;2022-11-04T11:49:34;10.17;;;3.07;;
15616;SDS011;7908;51.688;7.130;2022-11-04T11:55:02;12.27;;;3.00;;
15616;SDS011;7908;51.688;7.130;2022-11-04T11:57:46;7.57;;;3.17;;
15616;SDS011;7908;51.688;7.130;2022-11-04T12:00:47;10.20;;;5.60;;
15616;SDS011;7908;51.688;7.130;2022-11-04T12:03:29;8.13;;;3.60;;
15616;SDS011;7908;51.688;7.130;2022-11-04T12:06:24;10.13;;;3.80;;
15616;SDS011;7908;51.688;7.130;2022-11-04T12:09:22;6.97;;;3.47;;
15616;SDS011;7908;51.688;7.130;2022-11-04T12:12:03;11.53;;;4.50;;
15616;SDS011;7908;51.688;7.130;2022-11-04T12:14:49;10.10;;;4.97;;
15616;SDS011;7908;51.688;7.130;2022-11-04T12:17:32;9.43;;;4.70;;
15616;SDS011;7908;51.688;7.130;2022-11-04T12:20:21;9.27;;;4.90;;
15616;SDS011;7908;51.688;7.130;2022-11-04T12:23:02;10.17;;;5.07;;
15616;SDS011;7908;51.688;7.130;2022-11-04T12:25:39;9.63;;;4.70;;
15616;SDS011;7908;51.688;7.130;2022-11-04T12:28:19;10.97;;;4.90;;
15616;SDS011;7908;51.688;7.130;2022-11-04T12:30:56;8.70;;;4.97;;
15616;SDS011;7908;51.688;7.130;2022-11-04T12:33:37;8.43;;;4.33;;
15616;SDS011;7908;51.688;7.130;2022-11-04T12:36:18;10.93;;;5.03;;
15616;SDS011;7908;51.688;7.130;2022-11-04T12:38:57;13.70;;;5.33;;
15616;SDS011;7908;51.688;7.130;2022-11-04T12:41:44;10.40;;;5.30;;
15616;SDS011;7908;51.688;7.130;2022-11-04T12:44:46;9.00;;;5.03;;
15616;SDS011;7908;51.688;7.130;2022-11-04T12:47:24;8.23;;;4.30;;
15616;SDS011;7908;51.688;7.130;2022-11-04T12:50:07;12.13;;;4.50;;
15616;SDS011;7908;51.688;7.130;2022-11-04T12:52:49;9.57;;;4.20;;
15616;SDS011;7908;51.688;7.130;2022-11-04T12:55:48;10.97;;;4.53;;
15616;SDS011;7908;51.688;7.130;2022-11-04T12:58:29;13.50;;;4.33;;
15616;SDS011;7908;51.688;7.130;2022-11-04T13:01:07;10.63;;;4.80;;
15616;SDS011;7908;51.688;7.130;2022-11-04T13:03:43;8.87;;;4.60;;
15616;SDS011;7908;51.688;7.130;2022-11-04T13:06:22;10.27;;;5.47;;
15616;SDS011;7908;51.688;7.130;2022-11-04T13:08:56;11.10;;;4.90;;
15616;SDS011;7908;51.688;7.130;2022-11-04T13:11:30;10.07;;;5.30;;
15616;SDS011;7908;51.688;7.130;2022-11-04T13:14:04;12.40;;;5.10;;
15616;SDS011;7908;51.688;7.130;2022-11-04T13:16:37;9.17;;;4.70;;
15616;SDS011;7908;51.688;7.130;2022-11-04T13:19:14;10.80;;;4.47;;
15616;SDS011;7908;51.688;7.130;2022-11-04T13:21:51;9.50;;;4.07;;
15616;SDS011;7908;51.688;7.130;2022-11-04T13:24:21;7.90;;;3.40;;
15616;SDS011;7908;51.688;7.130;2022-11-04T13:26:56;8.40;;;2.83;;
15616;SDS011;7908;51.688;7.130;2022-11-04T13:29:29;6.70;;;2.90;;
15616;SDS011;7908;51.688;7.130;2022-11-04T13:32:04;7.33;;;3.10;;
15616;SDS011;7908;51.688;7.130;2022-11-04T13:34:42;9.33;;;3.20;;
15616;SDS011;7908;51.688;7.130;2022-11-04T13:37:20;7.80;;;3.30;;
15616;SDS011;7908;51.688;7.130;2022-11-04T13:39:55;10.50;;;3.57;;
15616;SDS011;7908;51.688;7.130;2022-11-04T13:42:45;9.43;;;3.47;;
15616;SDS011;7908;51.688;7.130;2022-11-04T13:45:51;9.77;;;3.80;;
15616;SDS011;7908;51.688;7.130;2022-11-04T13:48:22;8.97;;;4.47;;
15616;SDS011;7908;51.688;7.130;2022-11-04T13:50:54;9.73;;;5.27;;
15616;SDS011;7908;51.688;7.130;2022-11-04T13:56:25;8.87;;;3.87;;
15616;SDS011;7908;51.688;7.130;2022-11-04T13:59:02;11.07;;;4.30;;
15616;SDS011;7908;51.688;7.130;2022-11-04T14:01:34;10.53;;;4.37;;
15616;SDS011;7908;51.688;7.130;2022-11-04T14:06:57;8.33;;;3.67;;
15616;SDS011;7908;51.688;7.130;2022-11-04T14:12:30;9.80;;;3.87;;
15616;SDS011;7908;51.688;7.130;2022-11-04T14:15:05;8.03;;;3.50;;
15616;SDS011;7908;51.688;7.130;2022-11-04T14:18:01;8.57;;;3.57;;
15616;SDS011;7908;51.688;7.130;2022-11-04T14:20:38;6.90;;;3.00;;
15616;SDS011;7908;51.688;7.130;2022-11-04T14:23:35;9.57;;;3.60;;
15616;SDS011;7908;51.688;7.130;2022-11-04T14:26:07;7.00;;;2.93;;
15616;SDS011;7908;51.688;7.130;2022-11-04T14:28:39;9.80;;;3.10;;
15616;SDS011;7908;51.688;7.130;2022-11-04T14:31:10;12.00;;;3.30;;
15616;SDS011;7908;51.688;7.130;2022-11-04T14:33:52;7.53;;;3.30;;
15616;SDS011;7908;51.688;7.130;2022-11-04T14:39:04;5.63;;;2.80;;
15616;SDS011;7908;51.688;7.130;2022-11-04T14:41:50;5.93;;;2.93;;
15616;SDS011;7908;51.688;7.130;2022-11-04T14:44:34;8.50;;;3.23;;
15616;SDS011;7908;51.688;7.130;2022-11-04T14:47:11;9.33;;;3.83;;
15616;SDS011;7908;51.688;7.130;2022-11-04T14:49:44;5.03;;;2.90;;
15616;SDS011;7908;51.688;7.130;2022-11-04T14:52:19;7.40;;;2.87;;
15616;SDS011;7908;51.688;7.130;2022-11-04T14:54:51;13.03;;;3.03;;
15616;SDS011;7908;51.688;7.130;2022-11-04T14:57:27;9.40;;;3.20;;
15616;SDS011;7908;51.688;7.130;2022-11-04T15:00:16;10.47;;;3.50;;
15616;SDS011;7908;51.688;7.130;2022-11-04T15:02:48;6.23;;;2.97;;
15616;SDS011;7908;51.688;7.130;2022-11-04T15:05:26;7.23;;;2.70;;
15616;SDS011;7908;51.688;7.130;2022-11-04T15:07:59;5.97;;;2.67;;
15616;SDS011;7908;51.688;7.130;2022-11-04T15:10:29;9.43;;;2.97;;
15616;SDS011;7908;51.688;7.130;2022-11-04T15:12:59;10.67;;;2.93;;
15616;SDS011;7908;51.688;7.130;2022-11-04T15:15:31;7.83;;;2.60;;
15616;SDS011;7908;51.688;7.130;2022-11-04T15:18:04;9.47;;;2.70;;
15616;SDS011;7908;51.688;7.130;2022-11-04T15:20:36;9.60;;;2.47;;
15616;SDS011;7908;51.688;7.130;2022-11-04T15:23:10;9.80;;;3.10;;
15616;SDS011;7908;51.688;7.130;2022-11-04T15:25:43;7.43;;;2.67;;
15616;SDS011;7908;51.688;7.130;2022-11-04T15:28:18;7.50;;;2.30;;
15616;SDS011;7908;51.688;7.130;2022-11-04T15:31:00;8.27;;;3.37;;
15616;SDS011;7908;51.688;7.130;2022-11-04T15:33:34;6.60;;;2.97;;
15616;SDS011;7908;51.688;7.130;2022-11-04T15:36:08;8.70;;;3.60;;
15616;SDS011;7908;51.688;7.130;2022-11-04T15:38:43;8.50;;;4.47;;
15616;SDS011;7908;51.688;7.130;2022-11-04T15:41:15;10.33;;;4.50;;
15616;SDS011;7908;51.688;7.130;2022-11-04T15:44:13;9.13;;;4.07;;
15616;SDS011;7908;51.688;7.130;2022-11-04T15:46:51;10.03;;;4.67;;
15616;SDS011;7908;51.688;7.130;2022-11-04T15:49:22;7.73;;;4.23;;
15616;SDS011;7908;51.688;7.130;2022-11-04T15:51:54;10.60;;;5.47;;
15616;SDS011;7908;51.688;7.130;2022-11-04T15:54:27;12.23;;;5.83;;
15616;SDS011;7908;51.688;7.130;2022-11-04T15:56:58;8.80;;;4.87;;
15616;SDS011;7908;51.688;7.130;2022-11-04T15:59:33;11.87;;;4.87;;
15616;SDS011;7908;51.688;7.130;2022-11-04T16:02:04;8.80;;;4.67;;